createdAt,value
2022-08-17T00:00:34.323Z,100490.50
2022-08-17T00:02:59.839Z,100493.16
2022-08-17T00:05:32.029Z,100481.59
2022-08-17T00:08:01.642Z,100491.53
2022-08-17T00:10:29.605Z,100488.34
2022-08-17T00:13:00.686Z,100496.41
2022-08-17T00:15:28.652Z,100486.75
2022-08-17T00:17:56.728Z,100486.16
2022-08-17T00:20:30.597Z,100485.72
2022-08-17T00:23:05.392Z,100479.50
2022-08-17T00:25:33.574Z,100481.94
2022-08-17T00:28:02.143Z,100478.75
2022-08-17T00:30:30.220Z,100487.66
2022-08-17T00:33:20.139Z,100484.47
2022-08-17T00:35:48.580Z,100478.25
2022-08-17T00:38:17.981Z,100481.53
2022-08-17T00:40:47.263Z,100478.09
2022-08-17T00:43:17.507Z,100481.38
2022-08-17T00:45:45.950Z,100482.72
2022-08-17T00:48:29.028Z,100478.44
2022-08-17T00:50:59.750Z,100470.50
2022-08-17T00:53:34.191Z,100477.44
2022-08-17T00:56:03.363Z,100477.69
2022-08-17T00:58:36.115Z,100470.59
2022-08-17T01:01:05.260Z,100469.13
2022-08-17T01:03:33.964Z,100457.06
2022-08-17T01:06:03.366Z,100464.88
2022-08-17T01:08:33.362Z,100465.09
2022-08-17T01:11:02.679Z,100463.38
2022-08-17T01:13:36.772Z,100462.75
2022-08-17T01:16:10.932Z,100460.19
2022-08-17T01:18:39.140Z,100462.41
2022-08-17T01:21:10.457Z,100462.63
2022-08-17T01:23:42.253Z,100463.06
2022-08-17T01:26:10.213Z,100467.16
2022-08-17T01:28:54.743Z,100469.59
2022-08-17T01:31:25.818Z,100476.25
2022-08-17T01:33:53.792Z,100473.94
2022-08-17T01:36:22.582Z,100467.97
2022-08-17T01:38:52.701Z,100471.22
2022-08-17T01:41:22.827Z,100468.66
2022-08-17T01:43:53.312Z,100476.66
2022-08-17T01:46:22.473Z,100473.25
2022-08-17T01:48:51.588Z,100474.56
2022-08-17T01:51:19.975Z,100468.38
2022-08-17T01:53:49.472Z,100475.50
2022-08-17T01:56:20.075Z,100476.78
2022-08-17T01:58:48.274Z,100469.97
2022-08-17T02:01:18.208Z,100463.97
2022-08-17T02:03:56.142Z,100469.19
2022-08-17T02:06:29.091Z,100466.47
2022-08-17T02:09:02.651Z,100468.88
2022-08-17T02:11:34.005Z,100470.63
2022-08-17T02:14:04.131Z,100468.50
2022-08-17T02:16:36.947Z,100473.94
2022-08-17T02:19:06.651Z,100470.13
2022-08-17T02:21:34.617Z,100467.16
2022-08-17T02:24:02.934Z,100461.63
2022-08-17T02:26:31.134Z,100464.03
2022-08-17T02:29:00.657Z,100463.88
2022-08-17T02:31:28.616Z,100464.56
2022-08-17T02:34:03.695Z,100466.09
2022-08-17T02:36:33.423Z,100472.09
2022-08-17T02:39:01.864Z,100463.56
2022-08-17T02:41:29.826Z,100462.31
2022-08-17T02:43:57.671Z,100463.59
2022-08-17T02:46:27.307Z,100456.75
2022-08-17T02:48:55.270Z,100457.22
2022-08-17T02:51:23.229Z,100452.06
2022-08-17T02:53:51.193Z,100460.88
2022-08-17T02:56:19.272Z,100458.56
2022-08-17T02:58:47.482Z,100457.28
2022-08-17T03:01:15.580Z,100458.84
2022-08-17T03:03:45.077Z,100455.63
2022-08-17T03:06:12.922Z,100457.78
2022-08-17T03:08:40.882Z,100452.69
2022-08-17T03:11:08.735Z,100458.69
2022-08-17T03:13:36.686Z,100458.06
2022-08-17T03:16:05.007Z,100459.38
2022-08-17T03:18:32.968Z,100452.31
2022-08-17T03:21:04.355Z,100454.47
2022-08-17T03:23:32.976Z,100454.06
2022-08-17T03:26:01.415Z,100452.56
2022-08-17T03:28:30.334Z,100455.56
2022-08-17T03:30:58.547Z,100451.31
2022-08-17T03:33:26.739Z,100455.41
2022-08-17T03:35:54.704Z,100452.81
2022-08-17T03:38:24.341Z,100454.09
2022-08-17T03:40:57.226Z,100460.13
2022-08-17T03:43:29.273Z,100451.13
2022-08-17T03:46:28.725Z,100455.19
2022-08-17T03:49:23.991Z,100450.09
2022-08-17T03:52:09.597Z,100455.88
2022-08-17T03:54:56.636Z,100454.59
2022-08-17T03:57:24.715Z,100445.84
2022-08-17T03:59:52.915Z,100453.56
2022-08-17T04:02:22.801Z,100459.34
2022-08-17T04:04:52.485Z,100458.97
2022-08-17T04:07:21.003Z,100461.31
2022-08-17T04:09:50.655Z,100456.16
2022-08-17T04:12:19.579Z,100451.91
2022-08-17T04:14:52.827Z,100445.69
2022-08-17T04:17:23.050Z,100449.78
2022-08-17T04:19:51.019Z,100462.25
2022-08-17T04:22:30.803Z,100472.53
2022-08-17T04:25:05.193Z,100483.88
2022-08-17T04:27:34.696Z,100487.53
2022-08-17T04:30:02.777Z,100481.09
2022-08-17T04:33:05.011Z,100482.16
2022-08-17T04:35:20.419Z,100484.09
2022-08-17T04:37:48.748Z,100488.59
2022-08-17T04:40:36.383Z,100486.88
2022-08-17T04:43:06.030Z,100487.97
2022-08-17T04:45:34.107Z,100490.75
2022-08-17T04:48:02.432Z,100489.88
2022-08-17T04:50:30.513Z,100489.88
2022-08-17T04:52:58.981Z,100488.16
2022-08-17T04:55:28.719Z,100492.88
2022-08-17T04:57:56.915Z,100487.56
2022-08-17T05:00:26.080Z,100479.41
2022-08-17T05:02:55.730Z,100479.41
2022-08-17T05:05:25.241Z,100482.41
2022-08-17T05:07:54.524Z,100474.91
2022-08-17T05:10:22.490Z,100480.47
2022-08-17T05:13:00.056Z,100480.69
2022-08-17T05:15:28.967Z,100489.91
2022-08-17T05:18:01.375Z,100487.13
2022-08-17T05:20:31.260Z,100491.63
2022-08-17T05:23:01.021Z,100496.13
2022-08-17T05:25:29.577Z,100488.38
2022-08-17T05:28:02.461Z,100490.09
2022-08-17T05:30:30.552Z,100490.75
2022-08-17T05:33:00.187Z,100485.81
2022-08-17T05:35:29.581Z,100480.03
2022-08-17T05:37:57.542Z,100483.44
2022-08-17T05:40:27.065Z,100484.06
2022-08-17T05:43:10.387Z,100490.28
2022-08-17T05:45:55.202Z,100490.06
2022-08-17T05:48:36.747Z,100479.53
2022-08-17T05:51:16.756Z,100481.03
2022-08-17T05:53:53.240Z,100485.34
2022-08-17T05:56:29.969Z,100485.13
2022-08-17T05:59:05.117Z,100516.19
2022-08-17T06:01:36.377Z,100532.47
2022-08-17T06:04:17.003Z,100524.75
2022-08-17T06:06:51.806Z,100540.19
2022-08-17T06:09:33.617Z,100548.09
2022-08-17T06:12:04.765Z,100492.13
2022-08-17T06:14:46.052Z,100529.84
2022-08-17T06:17:15.570Z,100527.50
2022-08-17T06:19:45.332Z,100536.50
2022-08-17T06:22:15.578Z,100520.16
2022-08-17T06:24:45.220Z,100524.47
2022-08-17T06:27:19.178Z,100530.50
2022-08-17T06:29:54.230Z,100522.50
2022-08-17T06:32:23.265Z,100529.38
2022-08-17T06:34:51.584Z,100530.84
2022-08-17T06:37:25.554Z,100531.28
2022-08-17T06:39:56.588Z,100533.16
2022-08-17T06:43:02.514Z,100539.38
2022-08-17T06:45:21.349Z,100555.22
2022-08-17T06:47:53.992Z,100553.72
2022-08-17T06:50:28.314Z,100547.44
2022-08-17T06:52:59.202Z,100553.25
2022-08-17T06:55:35.799Z,100537.75
2022-08-17T06:58:16.029Z,100559.41
2022-08-17T07:00:48.411Z,100557.03
2022-08-17T07:03:21.006Z,100559.19
2022-08-17T07:05:52.924Z,100568.81
2022-08-17T07:08:35.311Z,100573.75
2022-08-17T07:11:09.853Z,100577.78
2022-08-17T07:13:49.168Z,100589.13
2022-08-17T07:16:23.429Z,100571.69
2022-08-17T07:18:53.069Z,100569.28
2022-08-17T07:21:28.957Z,100570.56
2022-08-17T07:24:02.075Z,100580.19
2022-08-17T07:26:30.152Z,100582.31
2022-08-17T07:28:58.587Z,100589.16
2022-08-17T07:31:30.625Z,100584.63
2022-08-17T07:34:08.433Z,100587.78
2022-08-17T07:36:43.831Z,100580.47
2022-08-17T07:39:12.147Z,100583.44
2022-08-17T07:41:53.025Z,100573.28
2022-08-17T07:44:29.909Z,100576.25
2022-08-17T07:47:19.606Z,100566.09
2022-08-17T07:49:49.000Z,100568.81
2022-08-17T07:52:50.715Z,100580.19
2022-08-17T07:55:27.169Z,100584.84
2022-08-17T07:57:57.534Z,100600.69
2022-08-17T08:00:31.484Z,100598.09
2022-08-17T08:03:18.769Z,100604.69
2022-08-17T08:05:53.094Z,100595.59
2022-08-17T08:08:26.807Z,100607.00
2022-08-17T08:11:19.132Z,100612.09
2022-08-17T08:13:49.977Z,100604.13
2022-08-17T08:16:26.212Z,100609.22
2022-08-17T08:18:57.173Z,100624.47
2022-08-17T08:21:34.522Z,100619.50
2022-08-17T08:24:09.785Z,100610.63
2022-08-17T08:26:42.457Z,100611.88
2022-08-17T08:29:18.319Z,100609.47
2022-08-17T08:31:52.033Z,100621.06
2022-08-17T08:34:59.103Z,100611.34
2022-08-17T08:37:30.366Z,100623.78
2022-08-17T08:40:08.424Z,100629.78
2022-08-17T08:42:40.509Z,100635.75
2022-08-17T08:45:13.760Z,100628.81
2022-08-17T08:47:52.552Z,100630.31
2022-08-17T08:50:38.145Z,100619.97
2022-08-17T08:53:27.678Z,100620.56
2022-08-17T08:56:00.562Z,100618.63
2022-08-17T08:58:41.295Z,100618.63
2022-08-17T09:01:16.850Z,100608.53
2022-08-17T09:04:23.391Z,100611.56
2022-08-17T09:06:59.742Z,100617.63
2022-08-17T09:09:32.141Z,100603.88
2022-08-17T09:12:06.813Z,100614.44
2022-08-17T09:14:46.472Z,100609.09
2022-08-17T09:17:18.425Z,100605.66
2022-08-17T09:19:49.664Z,100618.81
2022-08-17T09:22:23.259Z,100621.81
2022-08-17T09:24:54.711Z,100620.97
2022-08-17T09:27:26.866Z,100612.81
2022-08-17T09:29:57.876Z,100616.72
2022-08-17T09:32:29.743Z,100616.72
2022-08-17T09:35:01.551Z,100616.09
2022-08-17T09:37:33.827Z,100617.19
2022-08-17T09:40:08.805Z,100628.38
2022-08-17T09:42:43.909Z,100630.31
2022-08-17T09:45:24.237Z,100625.78
2022-08-17T09:47:55.800Z,100623.22
2022-08-17T09:51:03.915Z,100626.88
2022-08-17T09:53:16.206Z,100626.25
2022-08-17T09:55:51.844Z,100624.78
2022-08-17T09:58:29.075Z,100628.91
2022-08-17T10:01:03.312Z,100637.53
2022-08-17T10:03:49.087Z,100638.59
2022-08-17T10:06:22.295Z,100637.16
2022-08-17T10:08:55.448Z,100647.94
2022-08-17T10:11:50.487Z,100664.09
2022-08-17T10:14:37.412Z,100665.44
2022-08-17T10:17:16.937Z,100656.63
2022-08-17T10:19:51.145Z,100653.19
2022-08-17T10:22:41.805Z,100661.84
2022-08-17T10:25:42.929Z,100655.00
2022-08-17T10:28:19.850Z,100661.84
2022-08-17T10:31:10.434Z,100664.06
2022-08-17T10:33:51.026Z,100665.34
2022-08-17T10:36:23.545Z,100670.31
2022-08-17T10:39:00.146Z,100676.13
2022-08-17T10:41:30.631Z,100660.69
2022-08-17T10:44:36.955Z,100648.88
2022-08-17T10:46:59.675Z,100637.03
2022-08-17T10:49:30.523Z,100633.63
2022-08-17T10:52:00.047Z,100625.47
2022-08-17T10:54:46.140Z,100618.19
2022-08-17T10:57:29.087Z,100611.94
2022-08-17T10:59:57.774Z,100602.94
2022-08-17T11:02:30.645Z,100606.81
2022-08-17T11:05:11.333Z,100607.03
2022-08-17T11:07:46.487Z,100613.75
2022-08-17T11:10:24.410Z,100621.50
2022-08-17T11:13:01.292Z,100618.06
2022-08-17T11:15:38.935Z,100619.13
2022-08-17T11:18:20.333Z,100629.47
2022-08-17T11:21:06.306Z,100625.81
2022-08-17T11:23:49.168Z,100639.78
2022-08-17T11:26:26.103Z,100639.56
2022-08-17T11:28:58.987Z,100641.06
2022-08-17T11:31:38.837Z,100645.09
2022-08-17T11:34:14.716Z,100647.00
2022-08-17T11:36:52.525Z,100645.84
2022-08-17T11:39:31.221Z,100642.75
2022-08-17T11:42:06.191Z,100647.88
2022-08-17T11:44:48.205Z,100653.53
2022-08-17T11:47:36.916Z,100653.41
2022-08-17T11:50:41.475Z,100642.91
2022-08-17T11:53:31.157Z,100659.97
2022-08-17T11:56:03.440Z,100653.97
2022-08-17T11:58:37.463Z,100649.03
2022-08-17T12:01:07.053Z,100644.34
2022-08-17T12:03:54.113Z,100653.63
2022-08-17T12:06:33.213Z,100656.28
2022-08-17T12:09:08.042Z,100661.31
2022-08-17T12:11:55.124Z,100661.56
2022-08-17T12:15:05.898Z,100663.56
2022-08-17T12:17:39.484Z,100670.28
2022-08-17T12:20:12.712Z,100663.50
2022-08-17T12:22:46.417Z,100662.06
2022-08-17T12:25:20.648Z,100663.66
2022-08-17T12:28:06.468Z,100668.28
2022-08-17T12:30:36.710Z,100667.06
2022-08-17T12:33:04.904Z,100670.88
2022-08-17T12:35:35.373Z,100672.44
2022-08-17T12:38:04.546Z,100672.56
2022-08-17T12:40:34.207Z,100671.84
2022-08-17T12:43:04.076Z,100667.47
2022-08-17T12:45:32.870Z,100669.78
2022-08-17T12:48:02.772Z,100668.41
2022-08-17T12:50:32.278Z,100669.88
2022-08-17T12:53:02.448Z,100660.38
2022-08-17T12:55:32.602Z,100660.13
2022-08-17T12:58:03.502Z,100646.94
2022-08-17T13:00:34.714Z,100657.91
2022-08-17T13:03:05.903Z,100664.38
2022-08-17T13:05:36.243Z,100664.38
2022-08-17T13:08:05.884Z,100656.56
2022-08-17T13:10:34.813Z,100667.78
2022-08-17T13:13:06.151Z,100665.84
2022-08-17T13:15:38.536Z,100670.38
2022-08-17T13:18:28.090Z,100666.47
2022-08-17T13:20:58.814Z,100654.13
2022-08-17T13:23:29.054Z,100664.28
2022-08-17T13:25:59.059Z,100667.66
2022-08-17T13:28:35.451Z,100673.88
2022-08-17T13:31:24.181Z,100681.84
2022-08-17T13:33:52.222Z,100684.38
2022-08-17T13:36:33.994Z,100679.38
2022-08-17T13:39:07.826Z,100676.56
2022-08-17T13:41:36.986Z,100671.78
2022-08-17T13:46:59.593Z,100668.97
2022-08-17T13:49:48.417Z,100676.56
2022-08-17T13:52:33.577Z,100677.41
2022-08-17T13:55:02.513Z,100681.56
2022-08-17T13:57:30.324Z,100688.03
2022-08-17T14:00:07.641Z,100682.69
2022-08-17T14:02:37.283Z,100684.38
2022-08-17T14:05:06.166Z,100691.69
2022-08-17T14:07:36.099Z,100698.16
2022-08-17T14:10:06.966Z,100695.34
2022-08-17T14:12:35.497Z,100694.25
2022-08-17T14:15:03.306Z,100686.94
2022-08-17T14:17:36.517Z,100692.56
2022-08-17T14:20:10.669Z,100682.41
2022-08-17T14:22:40.130Z,100681.56
2022-08-17T14:25:10.317Z,100689.16
2022-08-17T14:27:52.142Z,100677.31
2022-08-17T14:30:21.791Z,100657.91
2022-08-17T14:32:52.921Z,100662.91
2022-08-17T14:35:23.770Z,100664.00
2022-08-17T14:37:52.111Z,100663.41
2022-08-17T14:40:24.567Z,100656.09
2022-08-17T14:42:54.051Z,100660.84
2022-08-17T14:45:29.830Z,100661.09
2022-08-17T14:48:01.188Z,100655.72
2022-08-17T14:50:30.520Z,100664.13
2022-08-17T14:53:01.415Z,100651.19
2022-08-17T14:55:29.751Z,100646.66
2022-08-17T14:57:57.436Z,100659.63
2022-08-17T15:00:25.373Z,100657.91
2022-08-17T15:02:54.867Z,100641.06
2022-08-17T15:05:24.535Z,100637.66
2022-08-17T15:07:53.954Z,100646.09
2022-08-17T15:10:21.788Z,100646.94
2022-08-17T15:12:49.477Z,100637.66
2022-08-17T15:15:18.469Z,100632.91
2022-08-17T15:17:46.312Z,100631.78
2022-08-17T15:20:15.254Z,100630.69
2022-08-17T15:22:44.007Z,100621.16
2022-08-17T15:25:14.683Z,100619.22
2022-08-17T15:27:42.382Z,100617.25
2022-08-17T15:30:11.001Z,100623.72
2022-08-17T15:32:39.671Z,100621.78
2022-08-17T15:35:08.774Z,100618.13
2022-08-17T15:37:36.509Z,100616.16
2022-08-17T15:40:05.068Z,100613.34
2022-08-17T15:42:35.428Z,100613.97
2022-08-17T15:45:06.716Z,100601.03
2022-08-17T15:47:34.637Z,100607.25
2022-08-17T15:50:05.434Z,100616.53
2022-08-17T15:52:37.917Z,100613.72
2022-08-17T15:55:06.295Z,100614.53
2022-08-17T15:57:35.378Z,100612.00
2022-08-17T16:00:03.580Z,100613.72
2022-08-17T16:03:45.668Z,100613.97
2022-08-17T16:05:31.240Z,100620.69
2022-08-17T16:07:59.653Z,100622.00
2022-08-17T16:10:35.197Z,100623.97
2022-08-17T16:13:05.298Z,100629.25
2022-08-17T16:15:44.951Z,100641.81
2022-08-17T16:18:16.575Z,100633.63
2022-08-17T16:20:44.392Z,100634.97
2022-08-17T16:23:15.078Z,100644.75
2022-08-17T16:25:53.791Z,100644.38
2022-08-17T16:28:35.947Z,100651.34
2022-08-17T16:31:05.896Z,100646.19
2022-08-17T16:33:36.653Z,100654.00
2022-08-17T16:36:04.573Z,100652.53
2022-08-17T16:38:32.309Z,100657.78
2022-08-17T16:40:59.973Z,100655.22
2022-08-17T16:43:29.983Z,100646.19
2022-08-17T16:45:57.938Z,100643.91
2022-08-17T16:48:25.616Z,100649.13
2022-08-17T16:51:02.941Z,100640.94
2022-08-17T16:53:31.349Z,100643.13
2022-08-17T16:55:59.005Z,100640.84
2022-08-17T16:58:26.785Z,100643.03
2022-08-17T17:00:59.699Z,100652.53
2022-08-17T17:03:29.133Z,100640.69
2022-08-17T17:06:00.241Z,100642.06
2022-08-17T17:08:32.972Z,100641.44
2022-08-17T17:11:04.049Z,100637.78
2022-08-17T17:13:41.104Z,100631.56
2022-08-17T17:16:17.497Z,100648.66
2022-08-17T17:18:52.133Z,100654.25
2022-08-17T17:21:22.548Z,100655.59
2022-08-17T17:23:54.674Z,100650.22
2022-08-17T17:26:27.484Z,100660.59
2022-08-17T17:29:04.998Z,100650.69
2022-08-17T17:31:38.262Z,100650.97
2022-08-17T17:34:07.545Z,100652.28
2022-08-17T17:36:38.448Z,100654.47
2022-08-17T17:39:07.583Z,100660.31
2022-08-17T17:41:37.961Z,100656.63
2022-08-17T17:44:07.714Z,100657.97
2022-08-17T17:46:38.854Z,100657.38
2022-08-17T17:49:08.320Z,100665.16
2022-08-17T17:52:06.624Z,100662.84
2022-08-17T17:54:35.131Z,100662.47
2022-08-17T17:57:08.343Z,100668.53
2022-08-17T17:59:44.067Z,100676.38
2022-08-17T18:02:41.968Z,100685.25
2022-08-17T18:05:19.314Z,100679.25
2022-08-17T18:07:54.278Z,100680.59
2022-08-17T18:10:30.524Z,100673.75
2022-08-17T18:13:08.156Z,100680.69
2022-08-17T18:15:37.956Z,100665.22
2022-08-17T18:18:31.096Z,100676.03
2022-08-17T18:21:04.265Z,100670.06
2022-08-17T18:23:33.066Z,100670.75
2022-08-17T18:26:01.847Z,100670.41
2022-08-17T18:28:31.589Z,100668.28
2022-08-17T18:31:07.471Z,100668.75
2022-08-17T18:33:38.164Z,100670.31
2022-08-17T18:36:07.037Z,100679.19
2022-08-17T18:38:35.789Z,100679.91
2022-08-17T18:41:17.282Z,100694.38
2022-08-17T18:43:53.460Z,100697.91
2022-08-17T18:46:28.672Z,100698.59
2022-08-17T18:48:59.886Z,100703.81
2022-08-17T18:51:40.629Z,100692.44
2022-08-17T18:54:16.006Z,100709.97
2022-08-17T18:56:44.944Z,100717.97
2022-08-17T18:59:17.996Z,100728.78
2022-08-17T19:01:53.800Z,100732.28
2022-08-17T19:04:34.174Z,100734.69
2022-08-17T19:07:04.724Z,100739.00
2022-08-17T19:09:35.045Z,100730.44
2022-08-17T19:12:05.041Z,100735.91
2022-08-17T19:14:33.054Z,100743.91
2022-08-17T19:17:05.862Z,100750.78
2022-08-17T19:19:39.071Z,100753.22
2022-08-17T19:22:10.510Z,100751.94
2022-08-17T19:24:47.643Z,100753.28
2022-08-17T19:27:18.286Z,100755.69
2022-08-17T19:29:51.209Z,100753.59
2022-08-17T19:32:20.991Z,100751.22
2022-08-17T19:34:50.155Z,100752.53
2022-08-17T19:37:25.735Z,100746.56
2022-08-17T19:39:58.596Z,100751.75
2022-08-17T19:42:32.947Z,100742.13
2022-08-17T19:45:02.978Z,100749.00
2022-08-17T19:47:54.168Z,100742.09
2022-08-17T19:50:31.079Z,100732.47
2022-08-17T19:53:03.354Z,100736.56
2022-08-17T19:55:33.028Z,100741.78
2022-08-17T19:58:06.017Z,100748.91
2022-08-17T20:00:36.113Z,100760.53
2022-08-17T20:03:06.328Z,100762.72
2022-08-17T20:06:08.714Z,100777.13
2022-08-17T20:08:27.394Z,100768.38
2022-08-17T20:10:57.427Z,100771.59
2022-08-17T20:13:33.542Z,100764.50
2022-08-17T20:16:02.092Z,100765.84
2022-08-17T20:18:37.751Z,100763.47
2022-08-17T20:21:20.267Z,100770.38
2022-08-17T20:23:52.489Z,100774.72
2022-08-17T20:26:22.106Z,100777.94
2022-08-17T20:29:04.629Z,100766.34
2022-08-17T20:31:46.023Z,100764.88
2022-08-17T20:34:33.604Z,100764.44
2022-08-17T20:37:07.933Z,100765.97
2022-08-17T20:39:38.315Z,100760.81
2022-08-17T20:42:08.751Z,100766.81
2022-08-17T20:44:37.618Z,100769.22
2022-08-17T20:47:08.359Z,100772.44
2022-08-17T20:49:47.118Z,100775.72
2022-08-17T20:52:36.234Z,100778.28
2022-08-17T20:55:05.104Z,100769.53
2022-08-17T20:57:47.771Z,100772.75
2022-08-17T21:00:50.179Z,100769.53
2022-08-17T21:03:51.236Z,100775.56
2022-08-17T21:06:21.634Z,100761.38
2022-08-17T21:08:54.261Z,100784.19
2022-08-17T21:11:58.247Z,100784.41
2022-08-17T21:14:38.035Z,100786.75
2022-08-17T21:17:23.433Z,100789.16
2022-08-17T21:20:10.997Z,100788.50
2022-08-17T21:22:48.553Z,100790.03
2022-08-17T21:25:27.950Z,100790.22
2022-08-17T21:28:02.004Z,100790.66
2022-08-17T21:30:44.492Z,100789.13
2022-08-17T21:33:18.159Z,100786.59
2022-08-17T21:35:52.268Z,100787.88
2022-08-17T21:38:22.169Z,100791.09
2022-08-17T21:40:52.656Z,100785.75
2022-08-17T21:43:25.196Z,100794.56
2022-08-17T21:45:58.692Z,100785.53
2022-08-17T21:48:27.126Z,100796.03
2022-08-17T21:51:00.816Z,100795.66
2022-08-17T21:53:33.372Z,100796.94
2022-08-17T21:56:02.581Z,100793.50
2022-08-17T21:58:33.297Z,100795.66
2022-08-17T22:01:14.586Z,100795.00
2022-08-17T22:03:42.818Z,100801.00
2022-08-17T22:06:21.813Z,100795.63
2022-08-17T22:09:00.107Z,100794.16
2022-08-17T22:11:29.247Z,100805.75
2022-08-17T22:14:05.953Z,100807.88
2022-08-17T22:16:33.924Z,100809.19
2022-08-17T22:19:01.744Z,100811.34
2022-08-17T22:21:29.466Z,100817.31
2022-08-17T22:24:06.432Z,100825.06
2022-08-17T22:26:52.678Z,100819.91
2022-08-17T22:29:53.372Z,100818.41
2022-08-17T22:32:37.490Z,100819.88
2022-08-17T22:35:28.451Z,100812.78
2022-08-17T22:37:56.436Z,100805.72
2022-08-17T22:40:26.213Z,100808.94
2022-08-17T22:42:54.139Z,100809.34
2022-08-17T22:45:23.884Z,100816.00
2022-08-17T22:47:56.585Z,100819.25
2022-08-17T22:50:25.238Z,100812.16
2022-08-17T22:53:18.322Z,100813.41
2022-08-17T22:56:11.008Z,100810.22
2022-08-17T22:59:00.923Z,100802.47
2022-08-17T23:01:29.942Z,100803.75
2022-08-17T23:04:01.242Z,100807.84
2022-08-17T23:06:29.235Z,100808.25
2022-08-17T23:08:57.591Z,100822.38
2022-08-17T23:11:36.944Z,100831.19
2022-08-17T23:14:16.160Z,100824.09
2022-08-17T23:16:44.188Z,100820.00
2022-08-17T23:19:17.810Z,100828.81
2022-08-17T23:21:45.942Z,100832.19
2022-08-17T23:24:15.039Z,100817.84
2022-08-17T23:26:42.736Z,100814.38
2022-08-17T23:29:10.366Z,100815.88
2022-08-17T23:31:39.698Z,100814.38
2022-08-17T23:34:09.934Z,100821.00
2022-08-17T23:36:39.395Z,100825.06
2022-08-17T23:39:07.264Z,100824.63
2022-08-17T23:41:37.159Z,100835.13
2022-08-17T23:44:06.398Z,100834.66
2022-08-17T23:46:34.596Z,100838.94
2022-08-17T23:49:03.208Z,100833.78
2022-08-17T23:51:34.107Z,100826.91
2022-08-17T23:54:08.160Z,100833.75
2022-08-17T23:56:41.907Z,100824.72
2022-08-17T23:59:09.948Z,100834.38
